Time;durP1;ratioP1;P1;durP2;ratioP2;P2;SDS_P1;SDS_P2;PMS_P1;PMS_P2;Temp;Humidity;BMP_temperature;BMP_pressure;BME280_temperature;BME280_humidity;BME280_pressure;Samples;Min_cycle;Max_cycle;Signal;HPM_P1;HPM_P2
2022/03/09 00:00:48;;;;;;;4.63;1.67;;;5.20;66.80;;;;;;4167817;28;20480;-88
2022/03/09 00:02:48;;;;;;;3.78;2.25;;;3.60;65.90;;;;;;4167237;28;20136;-88
2022/03/09 00:04:49;;;;;;;3.20;1.70;;;3.90;66.00;;;;;;4167946;28;20054;-88
2022/03/09 00:06:52;;;;;;;4.05;1.50;;;3.80;66.00;;;;;;4168270;28;20490;-88
2022/03/09 00:08:54;;;;;;;4.55;1.80;;;3.90;67.10;;;;;;4168094;28;20060;-88
2022/03/09 00:10:55;;;;;;;6.15;2.03;;;3.30;66.10;;;;;;4167138;28;20053;-88
2022/03/09 00:12:56;;;;;;;7.22;2.33;;;5.10;67.00;;;;;;4154015;28;20179;-88
2022/03/09 00:14:57;;;;;;;4.43;2.00;;;3.80;66.40;;;;;;4185039;28;20094;-88
2022/03/09 00:16:59;;;;;;;3.58;2.00;;;5.10;66.90;;;;;;4167258;28;20045;-88
2022/03/09 00:19:00;;;;;;;3.38;1.85;;;4.90;67.20;;;;;;4166855;28;20426;-88
2022/03/09 00:21:01;;;;;;;2.85;1.60;;;4.80;67.00;;;;;;4183728;28;20052;-87
2022/03/09 00:23:02;;;;;;;2.00;1.40;;;4.50;66.70;;;;;;4183735;28;20049;-88
2022/03/09 00:25:03;;;;;;;3.67;1.73;;;3.60;66.40;;;;;;4184319;28;20057;-87
2022/03/09 00:27:04;;;;;;;2.38;1.65;;;3.70;66.40;;;;;;4183986;28;20045;-88
2022/03/09 00:29:05;;;;;;;4.00;1.90;;;4.70;67.10;;;;;;4183669;28;20072;-88
2022/03/09 00:31:05;;;;;;;8.23;2.70;;;4.20;67.00;;;;;;4166854;28;20128;-87
2022/03/09 00:33:06;;;;;;;2.83;2.13;;;3.60;66.90;;;;;;4184746;28;20060;-88
2022/03/09 00:35:08;;;;;;;3.33;1.80;;;3.80;67.10;;;;;;4167298;28;20477;-88
2022/03/09 00:37:08;;;;;;;3.10;1.77;;;3.50;67.30;;;;;;4184756;28;20086;-89
2022/03/09 00:39:09;;;;;;;4.25;2.10;;;4.90;68.20;;;;;;4182983;28;20558;-88
2022/03/09 00:41:11;;;;;;;4.43;1.88;;;3.40;68.00;;;;;;4184507;28;20077;-88
2022/03/09 00:43:12;;;;;;;4.07;1.92;;;4.00;68.10;;;;;;4167316;28;20049;-87
2022/03/09 00:45:12;;;;;;;4.22;2.05;;;4.60;69.30;;;;;;4184875;28;20478;-88
2022/03/09 00:47:13;;;;;;;4.07;1.90;;;4.60;68.90;;;;;;4182834;28;20056;-88
2022/03/09 00:49:15;;;;;;;5.07;1.63;;;4.30;68.40;;;;;;4183234;28;20045;-88
2022/03/09 00:51:17;;;;;;;4.60;2.05;;;3.80;68.60;;;;;;4184411;28;20040;-88
2022/03/09 00:53:18;;;;;;;2.78;1.48;;;4.60;69.20;;;;;;4183326;28;20109;-88
2022/03/09 00:55:19;;;;;;;5.18;2.03;;;4.10;68.60;;;;;;4166361;28;20053;-88
2022/03/09 00:57:20;;;;;;;3.10;1.83;;;3.70;68.40;;;;;;4184497;28;20399;-89
2022/03/09 00:59:22;;;;;;;5.97;1.75;;;3.80;69.20;;;;;;4184349;28;20041;-88
2022/03/09 01:01:25;;;;;;;4.20;1.90;;;3.40;69.20;;;;;;4184109;28;20200;-88
2022/03/09 01:03:25;;;;;;;3.92;2.10;;;3.20;68.80;;;;;;4167337;28;20129;-88
2022/03/09 01:05:26;;;;;;;7.75;1.90;;;3.20;68.70;;;;;;4183205;28;20082;-87
2022/03/09 01:07:28;;;;;;;4.45;2.17;;;3.90;70.00;;;;;;4183526;28;20040;-88
2022/03/09 01:09:29;;;;;;;3.95;2.33;;;2.60;69.00;;;;;;4183668;28;20045;-88
2022/03/09 01:11:29;;;;;;;5.95;2.00;;;3.10;69.40;;;;;;4183886;28;20041;-88
2022/03/09 01:13:32;;;;;;;6.85;1.70;;;3.70;70.00;;;;;;4184049;28;20091;-87
2022/03/09 01:15:34;;;;;;;5.57;2.28;;;3.90;70.00;;;;;;4166219;28;20191;-88
2022/03/09 01:17:36;;;;;;;4.40;2.13;;;3.00;69.70;;;;;;4166161;28;20060;-89
2022/03/09 01:19:36;;;;;;;6.72;2.45;;;4.00;70.10;;;;;;4165996;28;20085;-88
2022/03/09 01:21:37;;;;;;;3.58;1.90;;;3.00;69.90;;;;;;4183082;28;20052;-88
2022/03/09 01:23:38;;;;;;;4.97;2.30;;;3.90;70.10;;;;;;4165977;28;20057;-88
2022/03/09 01:25:39;;;;;;;3.10;1.88;;;3.00;69.70;;;;;;4182373;28;20043;-88
2022/03/09 01:27:40;;;;;;;5.05;2.30;;;3.80;70.70;;;;;;4183676;28;20052;-89
2022/03/09 01:29:40;;;;;;;4.45;2.15;;;4.50;70.90;;;;;;4182079;28;20052;-88
2022/03/09 01:31:41;;;;;;;7.43;1.90;;;3.00;70.00;;;;;;4183600;28;20487;-88
2022/03/09 01:33:43;;;;;;;4.50;2.15;;;3.20;70.60;;;;;;4184010;28;20061;-87
2022/03/09 01:35:45;;;;;;;7.93;2.38;;;4.20;71.50;;;;;;4182188;28;20037;-88
2022/03/09 01:37:46;;;;;;;5.93;2.05;;;4.30;71.20;;;;;;4181721;28;20041;-87
2022/03/09 01:39:49;;;;;;;5.07;2.30;;;4.40;71.70;;;;;;4183774;28;20041;-88
2022/03/09 01:41:51;;;;;;;5.15;2.53;;;4.20;71.70;;;;;;4184744;28;20033;-88
2022/03/09 01:44:20;;;;;;;4.05;2.00;;;4.10;72.00;;;;;;4184453;28;20037;-88
2022/03/09 01:46:21;;;;;;;5.13;2.15;;;4.30;73.20;;;;;;4182978;28;20049;-88
2022/03/09 01:48:21;;;;;;;4.68;2.33;;;2.80;71.80;;;;;;4166752;28;20052;-88
2022/03/09 01:50:23;;;;;;;3.83;2.38;;;3.50;71.90;;;;;;4184519;28;20491;-88
2022/03/09 01:52:24;;;;;;;3.47;2.38;;;3.90;72.40;;;;;;4166219;28;20060;-87
2022/03/09 01:54:28;;;;;;;8.35;2.65;;;3.70;72.60;;;;;;4166460;28;20077;-89
2022/03/09 01:56:28;;;;;;;5.78;2.30;;;3.30;72.20;;;;;;4166859;28;20060;-87
2022/03/09 01:58:31;;;;;;;3.80;2.28;;;3.80;72.60;;;;;;4183408;28;20518;-88
2022/03/09 02:00:34;;;;;;;4.93;2.15;;;2.70;72.70;;;;;;4182790;28;20045;-88
2022/03/09 02:02:36;;;;;;;5.28;2.63;;;3.90;73.50;;;;;;4182676;28;20064;-88
2022/03/09 02:04:37;;;;;;;4.53;2.03;;;2.60;73.10;;;;;;4166739;28;20065;-88
2022/03/09 02:06:39;;;;;;;4.80;2.30;;;4.10;74.00;;;;;;4166023;28;20119;-87
2022/03/09 02:11:04;;;;;;;3.95;2.53;;;3.70;74.10;;;;;;4183784;28;20056;-88
2022/03/09 02:13:08;;;;;;;3.60;2.20;;;3.40;74.20;;;;;;4182751;28;20406;-89
2022/03/09 02:15:09;;;;;;;7.15;2.95;;;2.50;74.40;;;;;;4183019;28;20037;-88
2022/03/09 02:17:15;;;;;;;5.95;2.53;;;3.60;75.10;;;;;;4166390;28;20046;-88
2022/03/09 02:19:16;;;;;;;6.80;2.83;;;3.80;75.40;;;;;;4183190;28;20391;-89
2022/03/09 02:21:19;;;;;;;5.60;2.58;;;2.80;74.70;;;;;;4165734;28;20420;-89
2022/03/09 02:23:21;;;;;;;7.00;2.50;;;2.90;75.10;;;;;;4181619;28;20098;-89
2022/03/09 02:25:24;;;;;;;7.82;2.67;;;3.90;76.50;;;;;;4183074;28;20059;-88
2022/03/09 02:27:25;;;;;;;6.95;3.10;;;3.40;76.70;;;;;;4163151;28;20052;-88
2022/03/09 02:29:27;;;;;;;5.22;2.30;;;2.40;76.00;;;;;;4149152;28;20046;-87
2022/03/09 02:31:29;;;;;;;6.78;2.78;;;2.40;76.30;;;;;;4165648;28;20049;-88
2022/03/09 02:33:31;;;;;;;5.75;2.70;;;3.20;76.10;;;;;;4166029;28;20062;-87
2022/03/09 02:35:33;;;;;;;6.72;3.20;;;3.90;76.50;;;;;;4165751;28;20050;-88
2022/03/09 02:37:33;;;;;;;5.75;2.90;;;3.60;76.30;;;;;;4167271;28;20052;-87
2022/03/09 02:39:35;;;;;;;6.57;2.83;;;2.30;76.20;;;;;;4167196;28;20076;-88
2022/03/09 02:41:36;;;;;;;6.75;3.10;;;3.80;76.90;;;;;;4165224;28;20135;-88
2022/03/09 02:43:39;;;;;;;5.75;3.08;;;2.40;76.90;;;;;;4165779;28;20503;-88
2022/03/09 02:45:41;;;;;;;5.50;2.70;;;3.70;77.50;;;;;;4168909;28;20076;-88
2022/03/09 02:47:43;;;;;;;8.50;3.45;;;2.40;76.30;;;;;;4149278;28;20535;-87
2022/03/09 02:49:44;;;;;;;7.53;3.53;;;2.20;76.50;;;;;;4166492;28;20050;-88
2022/03/09 02:51:46;;;;;;;8.27;2.60;;;2.30;77.10;;;;;;4166336;28;20048;-88
2022/03/09 02:53:48;;;;;;;6.47;3.05;;;3.00;77.80;;;;;;4148727;28;20050;-88
2022/03/09 02:55:49;;;;;;;8.60;3.75;;;3.30;78.40;;;;;;4164993;28;20107;-88
2022/03/09 02:57:51;;;;;;;7.13;2.65;;;3.40;78.30;;;;;;4166748;28;20092;-88
2022/03/09 02:59:53;;;;;;;9.02;4.50;;;3.20;78.10;;;;;;4164941;28;20076;-87
2022/03/09 03:01:54;;;;;;;7.47;3.47;;;1.40;77.50;;;;;;4166285;28;20045;-87
2022/03/09 03:03:55;;;;;;;6.57;3.17;;;2.60;78.00;;;;;;4165196;28;20064;-87
2022/03/09 03:05:56;;;;;;;6.32;3.20;;;2.20;78.40;;;;;;4167092;28;20033;-87
2022/03/09 03:07:57;;;;;;;5.57;3.03;;;3.00;79.00;;;;;;4166596;28;20041;-87
2022/03/09 03:09:59;;;;;;;9.07;3.55;;;3.50;79.20;;;;;;4166592;28;20060;-87
2022/03/09 03:12:00;;;;;;;9.57;3.25;;;3.50;79.40;;;;;;4166144;28;20049;-89
2022/03/09 03:14:02;;;;;;;7.95;3.63;;;2.30;78.70;;;;;;4166090;28;20524;-89
2022/03/09 03:16:04;;;;;;;6.07;3.30;;;3.40;79.60;;;;;;4165668;28;20114;-88
2022/03/09 03:18:05;;;;;;;6.97;2.90;;;2.10;79.00;;;;;;4169813;28;20129;-88
2022/03/09 03:20:07;;;;;;;7.43;3.55;;;2.10;79.80;;;;;;4169999;28;20045;-87
2022/03/09 03:22:08;;;;;;;9.18;2.95;;;2.00;79.70;;;;;;4153811;28;20096;-88
2022/03/09 03:24:09;;;;;;;8.68;3.50;;;3.00;80.50;;;;;;4169236;28;20112;-88
2022/03/09 03:26:10;;;;;;;6.88;3.67;;;2.90;81.10;;;;;;4170928;28;20033;-88
2022/03/09 03:28:11;;;;;;;6.40;3.67;;;2.00;80.70;;;;;;4176016;28;20044;-88
2022/03/09 03:30:13;;;;;;;8.05;3.35;;;2.30;81.00;;;;;;4169083;28;20076;-89
2022/03/09 03:32:13;;;;;;;6.82;3.20;;;3.20;82.30;;;;;;4186074;28;20052;-88
2022/03/09 03:34:14;;;;;;;4.80;2.88;;;3.30;82.10;;;;;;4185900;28;20057;-88
2022/03/09 03:36:16;;;;;;;8.95;3.70;;;2.40;82.10;;;;;;4187276;28;20044;-88
2022/03/09 03:38:18;;;;;;;8.13;3.65;;;2.00;81.90;;;;;;4187902;28;20037;-88
2022/03/09 03:40:20;;;;;;;11.00;3.30;;;1.10;81.90;;;;;;4170576;28;20046;-87
2022/03/09 03:42:22;;;;;;;9.02;3.95;;;2.80;82.40;;;;;;4168897;28;20049;-87
2022/03/09 03:44:23;;;;;;;9.05;3.40;;;3.10;82.20;;;;;;4185674;28;20491;-88
2022/03/09 03:46:24;;;;;;;6.93;3.75;;;1.50;81.00;;;;;;4169892;28;20064;-88
2022/03/09 03:48:26;;;;;;;5.80;3.38;;;1.70;81.80;;;;;;4188444;28;20044;-88
2022/03/09 03:50:26;;;;;;;11.55;4.22;;;2.10;82.30;;;;;;4187262;28;20083;-89
2022/03/09 03:52:28;;;;;;;5.78;2.88;;;3.00;81.80;;;;;;4186655;28;20485;-88
2022/03/09 03:54:29;;;;;;;7.53;3.67;;;1.90;82.30;;;;;;4169498;28;20099;-88
2022/03/09 03:56:29;;;;;;;7.25;3.33;;;3.40;83.40;;;;;;4187189;28;20044;-87
2022/03/09 03:58:31;;;;;;;8.52;4.35;;;0.90;81.40;;;;;;4187486;28;20487;-88
2022/03/09 04:00:33;;;;;;;7.78;3.15;;;2.90;82.50;;;;;;4187554;28;20049;-88
2022/03/09 04:02:34;;;;;;;11.45;4.07;;;1.90;82.10;;;;;;4186990;28;20045;-88
2022/03/09 04:04:34;;;;;;;9.23;3.78;;;2.60;82.70;;;;;;4187610;28;20548;-88
2022/03/09 04:06:36;;;;;;;9.48;3.88;;;2.80;82.70;;;;;;4177032;28;20069;-88
2022/03/09 04:08:38;;;;;;;8.68;3.55;;;3.30;83.20;;;;;;4195221;28;20080;-88
2022/03/09 04:10:39;;;;;;;7.68;3.40;;;3.00;83.30;;;;;;4193071;28;20101;-88
2022/03/09 04:12:40;;;;;;;6.50;3.08;;;2.70;83.30;;;;;;4176057;28;20045;-87
2022/03/09 04:14:40;;;;;;;6.75;3.35;;;1.80;83.60;;;;;;4190880;28;20041;-87
2022/03/09 04:16:41;;;;;;;8.55;3.88;;;0.80;82.70;;;;;;4169592;28;20403;-88
2022/03/09 04:18:43;;;;;;;9.35;3.55;;;1.80;83.20;;;;;;4186346;28;20489;-88
2022/03/09 04:20:44;;;;;;;9.10;3.92;;;1.60;83.40;;;;;;4185038;28;20478;-88
2022/03/09 04:22:44;;;;;;;7.00;3.45;;;1.60;84.00;;;;;;4185385;28;20132;-88
2022/03/09 04:24:46;;;;;;;10.27;3.85;;;1.60;83.70;;;;;;4186267;28;20458;-89
2022/03/09 04:26:49;;;;;;;7.18;3.75;;;2.80;84.40;;;;;;4168550;28;20045;-88
2022/03/09 04:28:51;;;;;;;7.32;3.50;;;2.70;84.20;;;;;;4168226;28;20052;-88
2022/03/09 04:30:53;;;;;;;7.95;3.50;;;2.20;84.70;;;;;;4186428;28;20037;-88
2022/03/09 04:32:54;;;;;;;8.60;3.85;;;1.60;84.10;;;;;;4185398;28;20052;-88
2022/03/09 04:34:56;;;;;;;9.27;3.25;;;1.90;84.40;;;;;;4184432;28;20053;-88
2022/03/09 04:36:57;;;;;;;11.38;4.13;;;3.00;85.80;;;;;;4170594;28;20048;-88
2022/03/09 04:39:02;;;;;;;8.93;3.67;;;0.80;85.00;;;;;;4170695;28;20045;-88
2022/03/09 04:41:04;;;;;;;8.75;3.67;;;1.70;85.30;;;;;;4185513;28;20045;-88
2022/03/09 04:43:05;;;;;;;9.48;3.50;;;1.40;85.90;;;;;;4167970;28;20270;-88
2022/03/09 04:45:06;;;;;;;7.78;3.95;;;2.30;86.20;;;;;;4186118;28;20486;-87
2022/03/09 04:47:07;;;;;;;7.03;3.42;;;1.30;85.80;;;;;;4184217;28;20048;-88
2022/03/09 04:49:08;;;;;;;9.45;3.72;;;1.30;86.20;;;;;;4184905;28;20506;-89
2022/03/09 04:51:10;;;;;;;10.90;3.97;;;1.70;86.80;;;;;;4184223;28;20053;-89
2022/03/09 04:53:11;;;;;;;12.32;3.60;;;2.70;87.40;;;;;;4167763;28;20787;-88
2022/03/09 04:55:11;;;;;;;11.25;4.05;;;1.10;86.80;;;;;;4185670;28;20074;-89
2022/03/09 04:57:13;;;;;;;8.18;4.10;;;2.20;87.70;;;;;;4184170;28;20049;-89
2022/03/09 04:59:18;;;;;;;9.98;4.40;;;2.00;87.70;;;;;;4186077;28;20073;-88
2022/03/09 05:01:19;;;;;;;9.57;4.35;;;2.60;88.50;;;;;;4168517;28;20115;-89
2022/03/09 05:03:21;;;;;;;13.07;4.03;;;1.90;88.70;;;;;;4185780;28;20037;-89
2022/03/09 05:05:24;;;;;;;11.30;4.18;;;1.10;88.40;;;;;;4185995;28;20143;-89
2022/03/09 05:07:26;;;;;;;8.45;3.83;;;1.90;88.00;;;;;;4186325;28;20442;-89
2022/03/09 05:09:26;;;;;;;10.48;3.90;;;1.40;88.30;;;;;;4185391;28;20107;-88
2022/03/09 05:11:28;;;;;;;8.70;4.00;;;1.10;88.20;;;;;;4168434;28;20057;-88
2022/03/09 05:13:31;;;;;;;7.68;3.83;;;1.70;87.80;;;;;;4184951;28;20546;-88
2022/03/09 05:15:33;;;;;;;9.05;3.72;;;1.20;88.40;;;;;;4184437;28;20126;-89
2022/03/09 05:17:43;;;;;;;7.32;3.30;;;0.60;88.50;;;;;;4185561;28;20426;-88
2022/03/09 05:19:45;;;;;;;10.63;4.38;;;1.20;88.70;;;;;;4186146;28;20048;-89
2022/03/09 05:21:47;;;;;;;7.70;3.95;;;1.30;88.60;;;;;;4184744;28;20431;-88
2022/03/09 05:23:49;;;;;;;10.15;4.05;;;2.00;88.20;;;;;;4168454;28;20443;-89
2022/03/09 05:25:50;;;;;;;7.63;3.63;;;1.30;87.90;;;;;;4184771;28;20518;-89
2022/03/09 05:27:52;;;;;;;8.30;3.88;;;1.30;87.40;;;;;;4186405;28;20574;-88
2022/03/09 05:29:54;;;;;;;6.85;3.72;;;2.20;89.00;;;;;;4185489;28;20053;-89
2022/03/09 05:31:55;;;;;;;7.25;3.90;;;2.60;87.80;;;;;;4176762;28;20111;-88
2022/03/09 05:33:57;;;;;;;8.25;4.45;;;1.70;87.90;;;;;;4153039;28;20053;-88
2022/03/09 05:36:01;;;;;;;8.95;4.45;;;1.30;87.60;;;;;;4167872;28;20109;-88
2022/03/09 05:38:02;;;;;;;8.25;3.75;;;1.30;87.10;;;;;;4168436;28;20054;-88
2022/03/09 05:40:05;;;;;;;9.32;4.22;;;2.40;88.50;;;;;;4170223;28;20057;-88
2022/03/09 05:42:06;;;;;;;10.23;3.80;;;1.30;87.90;;;;;;4168603;28;20076;-88
2022/03/09 05:44:07;;;;;;;12.25;3.95;;;1.30;87.10;;;;;;4167139;28;20061;-88
2022/03/09 05:46:11;;;;;;;10.77;3.75;;;1.30;87.70;;;;;;4167125;28;20474;-88
2022/03/09 05:48:12;;;;;;;8.73;3.63;;;2.70;88.80;;;;;;4167613;28;20041;-88
2022/03/09 05:50:12;;;;;;;7.47;3.83;;;1.30;88.40;;;;;;4167832;28;20972;-89
2022/03/09 05:52:13;;;;;;;8.88;3.58;;;2.00;88.50;;;;;;4169124;28;20045;-89
2022/03/09 05:54:15;;;;;;;9.07;4.28;;;1.00;88.50;;;;;;4167277;28;20049;-89
2022/03/09 05:56:17;;;;;;;9.05;4.55;;;1.20;88.30;;;;;;4151179;28;20057;-88
2022/03/09 05:58:18;;;;;;;11.60;3.88;;;1.20;89.20;;;;;;4153851;28;20050;-88
2022/03/09 06:00:20;;;;;;;8.98;3.72;;;1.10;89.20;;;;;;4151451;28;20088;-88
2022/03/09 06:02:21;;;;;;;9.02;4.05;;;2.20;90.00;;;;;;4151243;28;20056;-89
2022/03/09 06:04:22;;;;;;;8.18;3.90;;;2.10;90.20;;;;;;4167815;28;20050;-88
2022/03/09 06:06:24;;;;;;;11.80;4.57;;;1.10;90.10;;;;;;4181629;28;20041;-88
2022/03/09 06:08:27;;;;;;;9.30;4.10;;;1.10;89.80;;;;;;4168159;28;20056;-88
2022/03/09 06:10:28;;;;;;;15.68;4.20;;;1.20;89.90;;;;;;4167615;28;20041;-87
2022/03/09 06:12:31;;;;;;;8.38;4.50;;;2.50;90.20;;;;;;4179889;28;20214;-88
2022/03/09 06:14:32;;;;;;;8.38;4.18;;;1.10;89.50;;;;;;4185598;28;20491;-88
2022/03/09 06:16:34;;;;;;;10.73;3.95;;;1.20;90.10;;;;;;4184343;28;20111;-88
2022/03/09 06:18:35;;;;;;;8.70;4.18;;;1.90;90.20;;;;;;4168875;28;20067;-89
2022/03/09 06:20:36;;;;;;;8.30;4.00;;;;;;;;;;4186066;28;20040;-89
2022/03/09 06:22:37;;;;;;;9.57;3.88;;;1.10;89.00;;;;;;4168136;28;20144;-89
2022/03/09 06:24:40;;;;;;;12.32;4.20;;;1.40;89.70;;;;;;4184149;28;20499;-89
2022/03/09 06:26:42;;;;;;;10.57;4.13;;;1.10;90.10;;;;;;4184220;28;20056;-88
2022/03/09 06:28:49;;;;;;;8.15;4.43;;;1.10;89.40;;;;;;4185140;28;20049;-88
2022/03/09 06:30:50;;;;;;;10.15;3.97;;;0.20;90.00;;;;;;4168594;28;20171;-89
2022/03/09 06:32:50;;;;;;;12.32;4.88;;;1.60;89.80;;;;;;4168057;28;20530;-88
2022/03/09 06:34:52;;;;;;;13.35;4.20;;;2.10;90.00;;;;;;4184298;28;20580;-88
2022/03/09 06:36:55;;;;;;;8.60;4.05;;;1.20;90.30;;;;;;4167923;28;20479;-89
2022/03/09 06:39:03;;;;;;;8.70;4.20;;;2.40;90.50;;;;;;4183377;28;20056;-89
2022/03/09 06:41:03;;;;;;;9.77;3.97;;;1.00;90.20;;;;;;4185935;28;20514;-88
2022/03/09 06:43:04;;;;;;;8.73;4.10;;;2.60;90.10;;;;;;4183246;28;20075;-89
2022/03/09 06:45:07;;;;;;;13.07;5.20;;;1.70;90.00;;;;;;4167964;28;20045;-89
2022/03/09 06:47:09;;;;;;;8.48;4.53;;;1.20;89.80;;;;;;4183659;28;20079;-89
2022/03/09 06:49:10;;;;;;;9.18;3.95;;;1.70;90.00;;;;;;4185342;28;20037;-89
2022/03/09 06:51:12;;;;;;;9.55;4.07;;;1.20;90.00;;;;;;4168361;28;20060;-88
2022/03/09 06:53:14;;;;;;;10.00;4.28;;;2.50;90.60;;;;;;4169433;28;20050;-88
2022/03/09 06:55:16;;;;;;;7.68;4.07;;;1.30;90.30;;;;;;4185935;28;20447;-88
2022/03/09 06:57:19;;;;;;;10.88;4.47;;;2.30;90.30;;;;;;4166658;28;20048;-89
2022/03/09 06:59:19;;;;;;;11.70;4.55;;;1.40;90.10;;;;;;4167180;28;20045;-88
2022/03/09 07:01:20;;;;;;;7.55;3.95;;;2.60;90.10;;;;;;4184374;28;20037;-88
2022/03/09 07:03:22;;;;;;;8.57;4.97;;;0.70;88.60;;;;;;4183624;28;20128;-88
2022/03/09 07:05:24;;;;;;;11.93;4.05;;;2.10;88.30;;;;;;4166914;28;20054;-88
2022/03/09 07:07:26;;;;;;;11.52;4.47;;;2.90;89.00;;;;;;4185436;28;20048;-88
2022/03/09 07:09:27;;;;;;;8.88;3.88;;;2.00;88.20;;;;;;4183232;28;20037;-88
2022/03/09 07:11:29;;;;;;;10.15;4.43;;;2.10;87.00;;;;;;4183454;28;20415;-87
2022/03/09 07:13:30;;;;;;;9.75;4.32;;;3.50;86.90;;;;;;4182230;28;20045;-89
2022/03/09 07:15:32;;;;;;;9.52;4.20;;;1.90;84.50;;;;;;4184057;28;20037;-89
2022/03/09 07:17:39;;;;;;;9.68;4.18;;;3.20;83.60;;;;;;4166455;28;20041;-89
2022/03/09 07:19:39;;;;;;;8.55;3.70;;;4.10;83.60;;;;;;4183632;28;20423;-89
2022/03/09 07:21:41;;;;;;;8.15;4.18;;;4.00;82.50;;;;;;4166357;28;20045;-89
2022/03/09 07:23:43;;;;;;;10.75;4.53;;;3.40;81.40;;;;;;4183120;28;20056;-89
2022/03/09 07:25:45;;;;;;;10.80;4.22;;;3.40;80.70;;;;;;4182735;28;20135;-89
2022/03/09 07:27:46;;;;;;;10.32;3.92;;;4.00;80.80;;;;;;4183179;28;20120;-88
2022/03/09 07:29:46;;;;;;;13.15;4.50;;;3.60;80.10;;;;;;4181555;28;20044;-87
2022/03/09 07:31:47;;;;;;;9.07;4.63;;;5.00;80.00;;;;;;4165165;28;20111;-87
2022/03/09 07:33:48;;;;;;;9.18;5.03;;;4.00;79.50;;;;;;4183047;28;20053;-88
2022/03/09 07:35:49;;;;;;;12.63;3.83;;;4.20;79.30;;;;;;4165818;28;20435;-88
2022/03/09 07:37:51;;;;;;;9.85;4.50;;;5.40;79.30;;;;;;4164951;28;20553;-88
2022/03/09 07:39:58;;;;;;;11.00;4.55;;;4.20;77.70;;;;;;4181827;28;20048;-88
2022/03/09 07:42:01;;;;;;;9.23;4.00;;;4.90;77.00;;;;;;4183289;28;20055;-88
2022/03/09 07:44:02;;;;;;;9.95;4.00;;;5.80;76.40;;;;;;4166863;28;20057;-89
2022/03/09 07:46:03;;;;;;;11.57;4.82;;;4.70;75.60;;;;;;4185968;28;20514;-89
2022/03/09 07:48:04;;;;;;;10.30;4.03;;;5.90;76.00;;;;;;4184299;28;20041;-89
2022/03/09 07:50:07;;;;;;;8.90;4.32;;;4.80;74.70;;;;;;4183931;28;20045;-89
2022/03/09 07:52:08;;;;;;;17.23;4.30;;;4.80;73.40;;;;;;4188704;28;20053;-88
2022/03/09 07:54:09;;;;;;;10.68;4.10;;;5.60;74.80;;;;;;4184735;28;20040;-88
2022/03/09 07:56:12;;;;;;;8.02;4.28;;;6.50;74.50;;;;;;4170903;28;20062;-88
2022/03/09 07:58:13;;;;;;;8.07;4.50;;;6.50;72.90;;;;;;4182623;28;20568;-88
2022/03/09 08:00:15;;;;;;;9.60;4.35;;;;;;;;;;4183000;28;20041;-88
2022/03/09 08:02:17;;;;;;;10.85;4.57;;;;;;;;;;4181537;28;20531;-88
2022/03/09 08:04:20;;;;;;;8.88;4.25;;;;;;;;;;4186587;28;20053;-88
2022/03/09 08:06:22;;;;;;;8.70;4.15;;;;;;;;;;4169097;28;20049;-88
2022/03/09 08:08:23;;;;;;;7.25;3.80;;;;;;;;;;4185759;28;20522;-88
2022/03/09 08:10:24;;;;;;;9.38;4.45;;;;;;;;;;4168556;28;20488;-88
2022/03/09 08:12:27;;;;;;;9.40;4.38;;;;;;;;;;4183399;28;20049;-88
2022/03/09 08:14:28;;;;;;;10.63;4.30;;;;;;;;;;4161722;28;20396;-88
2022/03/09 08:16:29;;;;;;;8.13;4.43;;;;;;;;;;4152825;28;20057;-87
2022/03/09 08:18:30;;;;;;;8.95;4.03;;;;;;;;;;4177403;28;20052;-87
2022/03/09 08:20:31;;;;;;;8.13;4.70;;;;;;;;;;4183315;28;20033;-88
2022/03/09 08:22:34;;;;;;;9.80;4.90;;;;;;;;;;4184769;28;20624;-89
2022/03/09 08:24:36;;;;;;;7.90;4.45;;;;;;;;;;4167516;28;20115;-89
2022/03/09 08:26:37;;;;;;;14.52;5.90;;;;;;;;;;4183956;28;20045;-89
2022/03/09 08:28:43;;;;;;;8.35;4.95;;;;;;;;;;4185586;28;20044;-88
2022/03/09 08:30:46;;;;;;;7.35;4.03;;;;;;;;;;4180570;28;20628;-88
2022/03/09 08:32:47;;;;;;;9.30;4.78;;;;;;;;;;4172978;28;20087;-87
2022/03/09 08:34:48;;;;;;;7.78;5.20;;;;;;;;;;4171856;28;20053;-87
2022/03/09 08:36:49;;;;;;;15.15;5.00;;;;;;;;;;4167972;28;20034;-87
2022/03/09 08:38:51;;;;;;;7.40;4.78;;;;;;;;;;4165381;28;20041;-88
2022/03/09 08:40:54;;;;;;;8.90;4.50;;;;;;;;;;4184871;28;20542;-89
2022/03/09 08:42:56;;;;;;;13.20;4.55;;;;;;;;;;4187121;28;20052;-88
2022/03/09 08:44:57;;;;;;;10.18;4.88;;;;;;;;;;4185993;28;20119;-88
2022/03/09 08:46:59;;;;;;;8.65;4.82;;;;;;;;;;4185339;28;20079;-88
2022/03/09 08:49:00;;;;;;;8.38;4.43;;;;;;;;;;4185227;28;20120;-87
2022/03/09 08:51:02;;;;;;;9.05;3.90;;;;;;;;;;4184640;28;20049;-90
2022/03/09 08:53:03;;;;;;;10.35;4.50;;;;;;;;;;4186960;28;20041;-89
2022/03/09 08:55:05;;;;;;;7.13;4.25;;;;;;;;;;4187270;28;20450;-85
2022/03/09 08:57:06;;;;;;;8.57;4.97;;;;;;;;;;4183698;28;20062;-85
2022/03/09 08:59:08;;;;;;;9.18;5.00;;;;;;;;;;4184547;28;20087;-85
2022/03/09 09:01:09;;;;;;;9.57;4.65;;;;;;;;;;4183143;28;20138;-85
2022/03/09 09:03:11;;;;;;;7.30;3.95;;;;;;;;;;4183393;28;20060;-85
2022/03/09 09:05:12;;;;;;;10.98;4.88;;;;;;;;;;4183415;28;20071;-84
2022/03/09 09:07:13;;;;;;;9.80;5.50;;;;;;;;;;4183966;28;20119;-84
2022/03/09 09:09:16;;;;;;;7.90;4.47;;;;;;;;;;4182446;28;20510;-84
2022/03/09 09:11:18;;;;;;;8.52;4.38;;;;;;;;;;4184926;28;20052;-86
2022/03/09 09:13:19;;;;;;;9.98;4.45;;;;;;;;;;4183736;28;20045;-85
2022/03/09 09:15:24;;;;;;;7.18;4.43;;;;;;;;;;4183313;28;20797;-85
2022/03/09 09:17:25;;;;;;;9.07;4.32;;;;;;;;;;4181334;28;20045;-84
2022/03/09 09:19:26;;;;;;;9.70;4.30;;;;;;;;;;4182175;28;20041;-84
2022/03/09 09:21:28;;;;;;;8.95;5.18;;;;;;;;;;4181529;28;20045;-84
2022/03/09 09:23:29;;;;;;;14.55;5.43;;;;;;;;;;4183092;28;20079;-84
2022/03/09 09:25:30;;;;;;;7.70;4.32;;;;;;;;;;4171132;28;20432;-84
2022/03/09 09:27:32;;;;;;;10.15;4.03;;;;;;;;;;4167797;28;20124;-85
2022/03/09 09:29:34;;;;;;;10.20;4.53;;;;;;;;;;4182360;28;20131;-84
2022/03/09 09:31:35;;;;;;;9.18;4.38;;;;;;;;;;4181882;28;20537;-84
2022/03/09 09:33:36;;;;;;;7.57;4.28;;;;;;;;;;4182644;28;20064;-84
2022/03/09 09:35:37;;;;;;;7.63;4.47;;;;;;;;;;4182517;28;20414;-84
2022/03/09 09:37:38;;;;;;;6.43;4.00;;;;;;;;;;4182727;28;20072;-85
2022/03/09 09:39:42;;;;;;;9.15;4.45;;;;;;;;;;4182377;28;20037;-85
2022/03/09 09:41:44;;;;;;;8.90;4.00;;;;;;;;;;4182619;28;20498;-85
2022/03/09 09:43:45;;;;;;;10.05;4.70;;;;;;;;;;4182820;28;20525;-85
2022/03/09 09:45:46;;;;;;;5.55;3.58;;;;;;;;;;4182966;28;20047;-84
2022/03/09 09:47:48;;;;;;;8.52;4.45;;;;;;;;;;4183085;28;20144;-84
2022/03/09 09:49:52;;;;;;;6.53;3.88;;;;;;;;;;4181366;28;20124;-84
2022/03/09 09:51:54;;;;;;;8.70;4.55;;;;;;;;;;4181891;28;20088;-84
2022/03/09 09:53:56;;;;;;;9.23;3.95;;;;;;;;;;4182751;28;20041;-84
2022/03/09 09:55:58;;;;;;;9.00;4.70;;;;;;;;;;4181621;28;20123;-85
2022/03/09 09:58:00;;;;;;;8.80;4.28;;;;;;;;;;4181157;28;20052;-85
2022/03/09 10:00:02;;;;;;;8.05;4.57;;;;;;;;;;4183219;28;20049;-85
2022/03/09 10:02:06;;;;;;;9.15;4.65;;;;;;;;;;4182360;28;20045;-86
2022/03/09 10:04:08;;;;;;;11.05;4.00;;;;;;;;;;4163603;28;20046;-86
2022/03/09 10:06:09;;;;;;;8.40;4.22;;;;;;;;;;4179451;28;20049;-86
2022/03/09 10:08:13;;;;;;;9.95;4.28;;;;;;;;;;4177836;28;20495;-86
2022/03/09 10:10:17;;;;;;;7.32;4.45;;;;;;;;;;4179630;28;20053;-84
2022/03/09 10:12:26;;;;;;;7.78;4.57;;;;;;;;;;4182275;28;20041;-86
2022/03/09 10:14:49;;;;;;;7.70;4.88;;;;;;;;;;4167574;28;20049;-83
2022/03/09 10:17:00;;;;;;;8.52;4.53;;;;;;;;;;4184100;28;20041;-82
2022/03/09 10:19:01;;;;;;;8.10;4.47;;;;;;;;;;4184880;28;20475;-83
2022/03/09 10:21:17;;;;;;;8.68;4.63;;;;;;;;;;4183272;28;20052;-83
2022/03/09 10:23:21;;;;;;;7.03;4.13;;;;;;;;;;4175007;28;20486;-84
2022/03/09 10:25:23;;;;;;;8.93;4.85;;;;;;;;;;4185768;28;20418;-83
2022/03/09 10:27:42;;;;;;;13.48;4.55;;;;;;;;;;4185161;28;20045;-83
2022/03/09 10:29:54;;;;;;;10.02;4.80;;;;;;;;;;4169978;28;20133;-84
2022/03/09 10:31:59;;;;;;;8.73;4.63;;;;;;;;;;4182860;28;20098;-83
2022/03/09 10:34:09;;;;;;;7.60;4.32;;;;;;;;;;4167578;28;20057;-83
2022/03/09 10:36:16;;;;;;;9.25;5.03;;;;;;;;;;4189624;28;20041;-84
2022/03/09 10:38:20;;;;;;;13.65;4.43;;;;;;;;;;4184945;28;20458;-84
2022/03/09 10:40:22;;;;;;;7.38;4.75;;;;;;;;;;4183550;28;20564;-84
2022/03/09 10:42:25;;;;;;;10.02;4.60;;;;;;;;;;4187374;28;20080;-83
2022/03/09 10:44:43;;;;;;;9.95;4.70;;;;;;;;;;4178672;28;20502;-82
2022/03/09 10:46:49;;;;;;;7.15;4.63;;;;;;;;;;4179554;28;20051;-83
2022/03/09 10:48:53;;;;;;;8.50;4.47;;;;;;;;;;4178682;28;20106;-84
2022/03/09 10:50:54;;;;;;;6.22;3.72;;;;;;;;;;4178475;28;20102;-84
2022/03/09 10:52:57;;;;;;;9.27;4.13;;;;;;;;;;4179880;28;20067;-83
2022/03/09 10:55:18;;;;;;;7.95;4.78;;;;;;;;;;4178594;28;20041;-84
2022/03/09 10:57:19;;;;;;;9.52;4.35;;;;;;;;;;4178982;28;20143;-83
2022/03/09 10:59:24;;;;;;;9.35;4.50;;;;;;;;;;4180372;28;20076;-83
2022/03/09 11:01:25;;;;;;;8.23;4.78;;;;;;;;;;4180673;28;20487;-84
2022/03/09 11:03:28;;;;;;;9.77;4.70;;;;;;;;;;4179349;28;20496;-83
2022/03/09 11:05:29;;;;;;;8.52;4.68;;;;;;;;;;4180412;28;20063;-84
2022/03/09 11:07:30;;;;;;;7.93;4.50;;;;;;;;;;4179390;28;20099;-84